Time;durP1;ratioP1;P1;durP2;ratioP2;P2;SDS_P1;SDS_P2;PMS_P1;PMS_P2;Temp;Humidity;BMP_temperature;BMP_pressure;BME280_temperature;BME280_humidity;BME280_pressure;Samples;Min_cycle;Max_cycle;Signal;HPM_P1;HPM_P2
2023/01/19 05:47:05;;;;;;;7.82;2.42;;;;;;;;;;5076236;28;20923;-84
2023/01/19 05:49:30;;;;;;;22.60;2.83;;;;;;;;;;5075486;28;20036;-84
2023/01/19 05:51:56;;;;;;;3.55;2.05;;;;;;;;;;5082751;28;20081;-83
2023/01/19 05:54:25;;;;;;;7.85;1.35;;;;;;;;;;5078537;28;20062;-84
2023/01/19 05:56:50;;;;;;;11.05;1.50;;;;;;;;;;5076452;28;20028;-84
2023/01/19 05:59:22;;;;;;;6.82;1.33;;;;;;;;;;5073609;28;20441;-81
2023/01/19 06:01:49;;;;;;;9.40;1.83;;;;;;;;;;5074972;28;20024;-83
2023/01/19 06:04:14;;;;;;;6.20;1.33;;;;;;;;;;5079466;28;20032;-82
2023/01/19 06:06:40;;;;;;;12.00;2.05;;;;;;;;;;5076668;28;20032;-87
2023/01/19 06:09:06;;;;;;;2.00;0.98;;;;;;;;;;5075529;28;20068;-84
2023/01/19 06:11:32;;;;;;;7.72;1.60;;;;;;;;;;5075605;28;20530;-83
2023/01/19 06:13:57;;;;;;;7.30;1.65;;;;;;;;;;5080352;28;20029;-86
2023/01/19 06:16:23;;;;;;;1.80;1.13;;;;;;;;;;5075903;28;20059;-83
2023/01/19 06:18:48;;;;;;;4.32;1.65;;;;;;;;;;5076062;28;20033;-86
2023/01/19 06:21:14;;;;;;;6.93;1.58;;;;;;;;;;5078866;28;20029;-87
2023/01/19 06:23:39;;;;;;;5.43;2.03;;;;;;;;;;5068509;28;20403;-86
2023/01/19 06:26:04;;;;;;;7.38;1.42;;;;;;;;;;5078763;28;20028;-84
2023/01/19 06:28:30;;;;;;;6.95;1.55;;;;;;;;;;5078258;28;20028;-82
2023/01/19 06:30:56;;;;;;;4.07;2.17;;;;;;;;;;5075558;28;20384;-85
2023/01/19 06:33:24;;;;;;;6.07;2.00;;;;;;;;;;5074865;28;20499;-86
2023/01/19 06:35:50;;;;;;;2.60;1.38;;;;;;;;;;5082387;28;20411;-87
2023/01/19 06:38:18;;;;;;;2.83;1.13;;;;;;;;;;5075041;28;20044;-85
2023/01/19 06:41:04;;;;;;;10.88;1.83;;;;;;;;;;5071542;28;20099;-86
2023/01/19 06:43:30;;;;;;;4.60;1.33;;;;;;;;;;5072658;28;20094;-86
2023/01/19 06:45:56;;;;;;;10.30;1.95;;;;;;;;;;5074533;28;20051;-85
2023/01/19 06:48:22;;;;;;;5.93;1.17;;;;;;;;;;5076127;28;20039;-87
2023/01/19 06:50:48;;;;;;;14.65;1.83;;;;;;;;;;5074735;28;20016;-83
2023/01/19 06:53:15;;;;;;;4.30;2.25;;;;;;;;;;5078619;28;20020;-88
2023/01/19 06:55:44;;;;;;;2.67;1.25;;;;;;;;;;5074933;28;20029;-85
2023/01/19 06:58:10;;;;;;;7.87;1.60;;;;;;;;;;5061422;28;20040;-86
2023/01/19 07:00:36;;;;;;;7.40;1.45;;;;;;;;;;5062451;28;20020;-84
2023/01/19 07:03:02;;;;;;;7.25;1.30;;;;;;;;;;5064126;28;20033;-86
2023/01/19 07:05:27;;;;;;;2.63;1.33;;;;;;;;;;5065161;28;20074;-87
2023/01/19 07:07:56;;;;;;;3.42;0.95;;;;;;;;;;5063389;28;20111;-86
2023/01/19 07:10:22;;;;;;;14.00;1.75;;;;;;;;;;5062372;28;20033;-85
2023/01/19 07:12:48;;;;;;;7.18;2.08;;;;;;;;;;5060500;28;20042;-84
2023/01/19 07:15:18;;;;;;;8.05;1.40;;;;;;;;;;5062405;28;20025;-87
2023/01/19 07:17:44;;;;;;;12.18;2.72;;;;;;;;;;5055323;28;20040;-86
2023/01/19 07:20:13;;;;;;;1.65;0.73;;;;;;;;;;5062034;28;20041;-86
2023/01/19 07:22:45;;;;;;;7.50;2.30;;;;;;;;;;5059638;28;20017;-87
2023/01/19 07:25:12;;;;;;;5.88;1.00;;;;;;;;;;5059125;28;20021;-84
2023/01/19 07:27:37;;;;;;;6.82;2.63;;;;;;;;;;5063335;28;20082;-85
2023/01/19 07:30:04;;;;;;;4.82;0.90;;;;;;;;;;5067181;28;20415;-86
2023/01/19 07:32:29;;;;;;;7.63;1.30;;;;;;;;;;5055151;28;20033;-87
2023/01/19 07:34:55;;;;;;;5.97;1.63;;;;;;;;;;5061892;28;20089;-87
2023/01/19 07:37:21;;;;;;;7.88;2.63;;;;;;;;;;5059827;28;20028;-86
2023/01/19 07:39:46;;;;;;;7.72;1.83;;;;;;;;;;5065332;28;20028;-86
2023/01/19 07:42:12;;;;;;;3.50;1.00;;;;;;;;;;5061719;28;20036;-85
2023/01/19 07:44:37;;;;;;;3.28;1.05;;;;;;;;;;5060129;28;20430;-85
2023/01/19 07:47:04;;;;;;;9.07;1.45;;;;;;;;;;5061963;28;20397;-86
2023/01/19 07:49:30;;;;;;;2.20;1.10;;;;;;;;;;5061902;28;20029;-86
2023/01/19 07:51:55;;;;;;;1.90;1.17;;;;;;;;;;5067809;28;20030;-85
2023/01/19 07:54:21;;;;;;;18.23;3.03;;;;;;;;;;5065072;28;20108;-86
2023/01/19 07:56:46;;;;;;;1.13;0.68;;;;;;;;;;5066216;28;20024;-86
2023/01/19 07:59:12;;;;;;;8.70;1.38;;;;;;;;;;5059336;28;20369;-87
2023/01/19 08:01:37;;;;;;;3.10;0.98;;;;;;;;;;5063596;28;20029;-88
2023/01/19 08:04:03;;;;;;;4.93;1.33;;;;;;;;;;5063152;28;20059;-87
2023/01/19 08:06:32;;;;;;;7.75;1.45;;;;;;;;;;5064265;28;20464;-85
2023/01/19 08:08:58;;;;;;;4.47;2.42;;;;;;;;;;5059190;28;20041;-84
2023/01/19 08:11:24;;;;;;;2.03;0.85;;;;;;;;;;5063198;28;20058;-85
2023/01/19 08:13:49;;;;;;;9.55;2.35;;;;;;;;;;5060746;28;20039;-84
2023/01/19 08:16:15;;;;;;;6.93;1.73;;;;;;;;;;5058681;28;20024;-84
2023/01/19 08:18:41;;;;;;;8.35;1.90;;;;;;;;;;5063302;28;20025;-87
2023/01/19 08:21:06;;;;;;;2.28;1.02;;;;;;;;;;5062432;28;20074;-86
2023/01/19 08:23:32;;;;;;;1.95;1.48;;;;;;;;;;5061356;28;20480;-85
2023/01/19 08:25:57;;;;;;;12.50;2.05;;;;;;;;;;5066705;28;20027;-85
2023/01/19 08:28:23;;;;;;;5.55;1.60;;;;;;;;;;5068198;28;20361;-84
2023/01/19 08:30:53;;;;;;;15.93;2.28;;;;;;;;;;5059284;28;20029;-86
2023/01/19 08:33:19;;;;;;;;;;;;;;;;;;5060019;28;20040;-85
2023/01/19 08:35:48;;;;;;;9.05;2.05;;;;;;;;;;5062401;28;19916;-86
2023/01/19 08:38:14;;;;;;;1.75;1.23;;;;;;;;;;5062818;28;20495;-85
2023/01/19 08:40:40;;;;;;;7.85;1.73;;;;;;;;;;5061789;28;20035;-85
2023/01/19 08:43:14;;;;;;;11.73;2.50;;;;;;;;;;5058544;28;20029;-84
2023/01/19 08:45:46;;;;;;;9.48;1.80;;;;;;;;;;5063177;28;20116;-85
2023/01/19 08:48:21;;;;;;;9.55;1.42;;;;;;;;;;5059692;28;20029;-87
2023/01/19 08:50:48;;;;;;;4.30;1.73;;;;;;;;;;5059208;28;20044;-86
2023/01/19 08:53:14;;;;;;;9.23;2.80;;;;;;;;;;5059731;28;20032;-87
2023/01/19 08:55:39;;;;;;;3.22;1.40;;;;;;;;;;5056163;28;20021;-84
2023/01/19 08:58:07;;;;;;;3.90;1.33;;;;;;;;;;5049016;28;20059;-86
2023/01/19 09:00:33;;;;;;;9.25;1.58;;;;;;;;;;5058599;28;20453;-85
2023/01/19 09:03:03;;;;;;;8.73;1.90;;;;;;;;;;5062674;28;20036;-87
2023/01/19 09:05:34;;;;;;;8.13;1.85;;;;;;;;;;5061415;28;20460;-86
2023/01/19 09:08:01;;;;;;;6.70;1.30;;;;;;;;;;5057489;28;20036;-86
2023/01/19 09:10:30;;;;;;;1.75;0.82;;;;;;;;;;5061002;28;20476;-86
2023/01/19 09:12:56;;;;;;;0.93;0.63;;;;;;;;;;5061533;28;20098;-86
2023/01/19 09:15:22;;;;;;;0.70;0.70;;;;;;;;;;5056484;28;20024;-88
2023/01/19 09:17:47;;;;;;;7.05;0.80;;;;;;;;;;5061371;28;20485;-85
2023/01/19 09:20:13;;;;;;;2.80;1.40;;;;;;;;;;5060042;28;20385;-87
2023/01/19 09:22:38;;;;;;;13.25;1.52;;;;;;;;;;5057854;28;20048;-87
2023/01/19 09:25:06;;;;;;;11.25;1.42;;;;;;;;;;5059231;28;20021;-85
2023/01/19 09:27:31;;;;;;;3.72;1.45;;;;;;;;;;5058364;28;20126;-84
2023/01/19 09:29:57;;;;;;;5.53;2.55;;;;;;;;;;5059706;28;20059;-88
2023/01/19 09:32:23;;;;;;;8.80;1.58;;;;;;;;;;5058810;28;20361;-87
2023/01/19 09:34:48;;;;;;;2.63;1.17;;;;;;;;;;5057115;28;20111;-85
2023/01/19 09:37:16;;;;;;;4.10;1.05;;;;;;;;;;5062637;28;20036;-87
2023/01/19 09:39:42;;;;;;;14.48;1.88;;;;;;;;;;5059103;28;20025;-87
2023/01/19 09:42:26;;;;;;;1.88;0.80;;;;;;;;;;5054063;28;20035;-87
2023/01/19 09:44:53;;;;;;;2.63;0.68;;;;;;;;;;5058117;28;20029;-87
2023/01/19 09:47:23;;;;;;;4.60;1.60;;;;;;;;;;5056695;28;20036;-86
2023/01/19 09:49:57;;;;;;;6.43;1.67;;;;;;;;;;5061454;28;20465;-86
2023/01/19 09:52:22;;;;;;;8.40;1.08;;;;;;;;;;5060901;28;20027;-85
2023/01/19 09:54:56;;;;;;;6.07;1.38;;;;;;;;;;5062160;28;20428;-85
2023/01/19 09:57:24;;;;;;;1.98;0.82;;;;;;;;;;5061510;28;20029;-85
2023/01/19 09:59:50;;;;;;;3.15;1.58;;;;;;;;;;5057653;28;20037;-85
2023/01/19 10:02:53;;;;;;;2.50;1.13;;;;;;;;;;5055053;28;20056;-85
2023/01/19 10:05:30;;;;;;;1.67;0.65;;;;;;;;;;5053333;28;20445;-85
2023/01/19 10:08:24;;;;;;;5.97;1.38;;;;;;;;;;5056311;28;20082;-87
2023/01/19 10:10:55;;;;;;;1.75;0.90;;;;;;;;;;5056445;28;20039;-85
2023/01/19 10:13:42;;;;;;;7.20;1.08;;;;;;;;;;5060401;28;20800;-86
2023/01/19 10:16:51;;;;;;;0.93;0.75;;;;;;;;;;5057406;28;20070;-87
2023/01/19 10:19:36;;;;;;;1.70;0.80;;;;;;;;;;5057576;28;20044;-85
2023/01/19 10:22:15;;;;;;;1.05;0.50;;;;;;;;;;5056862;28;20601;-86
2023/01/19 10:24:42;;;;;;;6.45;0.98;;;;;;;;;;5062481;28;20021;-85
2023/01/19 10:27:16;;;;;;;0.30;0.30;;;;;;;;;;5057137;28;20021;-87
2023/01/19 10:29:43;;;;;;;5.47;1.35;;;;;;;;;;5058934;28;20108;-85
2023/01/19 10:32:18;;;;;;;0.88;0.55;;;;;;;;;;5056747;28;20087;-85
2023/01/19 10:34:44;;;;;;;1.98;0.80;;;;;;;;;;5059235;28;20031;-85
2023/01/19 10:37:23;;;;;;;0.55;0.55;;;;;;;;;;5061896;28;20017;-84
2023/01/19 10:39:54;;;;;;;0.85;0.68;;;;;;;;;;5061312;28;20090;-83
2023/01/19 10:42:20;;;;;;;1.95;0.70;;;;;;;;;;5063755;28;20483;-86
2023/01/19 10:44:45;;;;;;;3.72;1.10;;;;;;;;;;5062326;28;20033;-84
2023/01/19 10:47:17;;;;;;;3.10;1.08;;;;;;;;;;5063226;28;20465;-83
2023/01/19 10:49:43;;;;;;;1.08;0.38;;;;;;;;;;5063102;28;20063;-85
2023/01/19 10:52:27;;;;;;;5.40;0.50;;;;;;;;;;5058657;28;20373;-85
2023/01/19 10:54:54;;;;;;;1.35;0.70;;;;;;;;;;5063424;28;20031;-84
2023/01/19 10:57:33;;;;;;;2.08;0.90;;;;;;;;;;5061833;28;20025;-86
2023/01/19 10:59:58;;;;;;;0.80;0.60;;;;;;;;;;5060703;28;20445;-87
2023/01/19 11:02:31;;;;;;;1.17;0.63;;;;;;;;;;5063757;28;20032;-86
2023/01/19 11:05:19;;;;;;;3.38;0.98;;;;;;;;;;5061160;28;20037;-86
2023/01/19 11:07:45;;;;;;;5.25;1.20;;;;;;;;;;5059730;28;20028;-84
2023/01/19 11:10:17;;;;;;;5.40;0.77;;;;;;;;;;5059928;28;20031;-84
2023/01/19 11:13:02;;;;;;;3.60;0.77;;;;;;;;;;5063268;28;20033;-85
2023/01/19 11:15:51;;;;;;;1.02;0.65;;;;;;;;;;5061875;28;20505;-84
2023/01/19 11:18:31;;;;;;;4.03;0.90;;;;;;;;;;5050469;28;20030;-83
2023/01/19 11:21:01;;;;;;;1.70;0.85;;;;;;;;;;5054826;28;20051;-86
2023/01/19 11:23:40;;;;;;;2.00;0.65;;;;;;;;;;5058886;28;20099;-84
2023/01/19 11:26:27;;;;;;;3.85;0.52;;;;;;;;;;5064034;28;20069;-84
2023/01/19 11:28:55;;;;;;;0.98;0.73;;;;;;;;;;5059334;28;20052;-87
2023/01/19 11:31:27;;;;;;;1.52;0.95;;;;;;;;;;5054158;28;20025;-84
2023/01/19 11:33:58;;;;;;;4.70;1.05;;;;;;;;;;5056278;28;20024;-84
2023/01/19 11:36:29;;;;;;;7.05;1.05;;;;;;;;;;5067736;28;20093;-84
2023/01/19 11:38:57;;;;;;;5.18;1.10;;;;;;;;;;5059332;28;20037;-87
2023/01/19 11:41:29;;;;;;;1.60;0.68;;;;;;;;;;5063578;28;20162;-86
2023/01/19 11:43:59;;;;;;;2.00;1.13;;;;;;;;;;5059329;28;20424;-83
2023/01/19 11:46:30;;;;;;;0.20;0.20;;;;;;;;;;5066418;28;20037;-84
2023/01/19 11:49:03;;;;;;;0.60;0.32;;;;;;;;;;5062357;28;20040;-85
2023/01/19 11:51:36;;;;;;;1.95;0.90;;;;;;;;;;5060312;28;20060;-84
2023/01/19 11:54:13;;;;;;;1.48;0.73;;;;;;;;;;5062544;28;20181;-84
2023/01/19 11:56:39;;;;;;;0.77;0.57;;;;;;;;;;5059604;28;20376;-85
2023/01/19 11:59:07;;;;;;;1.70;0.88;;;;;;;;;;5059864;28;20036;-85
2023/01/19 12:01:35;;;;;;;0.95;0.77;;;;;;;;;;5062861;28;20047;-84
2023/01/19 12:04:14;;;;;;;0.75;0.75;;;;;;;;;;5058640;28;20445;-85
2023/01/19 12:06:46;;;;;;;0.85;0.50;;;;;;;;;;5058136;28;20108;-84
2023/01/19 12:09:37;;;;;;;4.03;0.77;;;;;;;;;;5056123;28;20021;-85
2023/01/19 12:12:11;;;;;;;1.08;0.50;;;;;;;;;;5062442;28;20111;-84
2023/01/19 12:14:50;;;;;;;0.85;0.70;;;;;;;;;;5059510;28;20491;-84
2023/01/19 12:17:35;;;;;;;2.00;0.77;;;;;;;;;;5052697;28;20078;-85
2023/01/19 12:20:31;;;;;;;1.25;0.60;;;;;;;;;;5055545;28;20036;-85
2023/01/19 12:23:29;;;;;;;2.33;0.52;;;;;;;;;;5057467;28;20032;-85
2023/01/19 12:26:13;;;;;;;3.22;0.70;;;;;;;;;;5058020;28;20021;-83
2023/01/19 12:28:44;;;;;;;6.32;0.82;;;;;;;;;;5057889;28;20606;-84
2023/01/19 12:31:17;;;;;;;2.35;0.57;;;;;;;;;;5063799;28;20035;-81
2023/01/19 12:33:43;;;;;;;3.97;0.70;;;;;;;;;;5062572;28;20024;-84
2023/01/19 12:36:14;;;;;;;2.65;0.80;;;;;;;;;;5059272;28;20033;-84
2023/01/19 12:38:49;;;;;;;0.45;0.43;;;;;;;;;;5060906;28;20021;-85
2023/01/19 12:41:18;;;;;;;6.47;1.10;;;;;;;;;;5059307;28;20017;-86
2023/01/19 12:43:45;;;;;;;3.47;0.50;;;;;;;;;;5064470;28;20036;-83
2023/01/19 12:47:05;;;;;;;2.75;0.60;;;;;;;;;;5061122;28;20037;-86
2023/01/19 12:49:36;;;;;;;1.00;0.55;;;;;;;;;;5066067;28;20040;-84
2023/01/19 12:52:23;;;;;;;3.33;1.10;;;;;;;;;;5054054;28;20123;-86
2023/01/19 12:54:59;;;;;;;5.68;1.00;;;;;;;;;;5056412;28;20423;-85
2023/01/19 12:57:32;;;;;;;2.47;0.80;;;;;;;;;;5055733;28;20077;-83
2023/01/19 13:00:18;;;;;;;12.15;1.20;;;;;;;;;;5062608;28;20024;-84
2023/01/19 13:02:45;;;;;;;1.10;0.22;;;;;;;;;;5060197;28;20583;-84
2023/01/19 13:05:29;;;;;;;1.23;0.70;;;;;;;;;;5061374;28;20020;-87
2023/01/19 13:08:00;;;;;;;1.48;0.65;;;;;;;;;;5055869;28;20037;-86
2023/01/19 13:10:53;;;;;;;3.67;0.68;;;;;;;;;;5057492;28;20029;-86
2023/01/19 13:13:20;;;;;;;3.60;1.02;;;;;;;;;;5054582;28;20488;-86
2023/01/19 13:15:46;;;;;;;0.20;0.20;;;;;;;;;;5059602;28;20524;-87
2023/01/19 13:18:19;;;;;;;1.45;0.30;;;;;;;;;;5056300;28;20029;-86
2023/01/19 13:21:05;;;;;;;0.68;0.25;;;;;;;;;;5055662;28;20028;-85
2023/01/19 13:23:48;;;;;;;1.65;0.63;;;;;;;;;;5060109;28;20528;-84
2023/01/19 13:26:16;;;;;;;0.45;0.45;;;;;;;;;;5052023;28;20020;-85
2023/01/19 13:28:44;;;;;;;1.77;0.32;;;;;;;;;;5058371;28;20025;-86
2023/01/19 13:31:11;;;;;;;4.25;1.05;;;;;;;;;;5062960;28;20025;-86
2023/01/19 13:33:54;;;;;;;1.00;0.55;;;;;;;;;;5063091;28;20024;-85
2023/01/19 13:36:37;;;;;;;1.45;0.57;;;;;;;;;;5057201;28;20108;-86
2023/01/19 13:39:06;;;;;;;1.48;0.70;;;;;;;;;;5053457;28;20083;-86
2023/01/19 13:41:36;;;;;;;0.50;0.30;;;;;;;;;;5056879;28;20021;-84
2023/01/19 13:44:27;;;;;;;1.70;0.50;;;;;;;;;;5053436;28;20039;-86
2023/01/19 13:46:55;;;;;;;3.13;0.63;;;;;;;;;;5043086;28;20047;-84
2023/01/19 13:49:35;;;;;;;1.40;0.55;;;;;;;;;;5054439;28;20042;-83
2023/01/19 13:52:16;;;;;;;1.63;0.57;;;;;;;;;;5053092;28;20065;-84
2023/01/19 13:54:53;;;;;;;1.85;0.50;;;;;;;;;;5049436;28;20087;-85
2023/01/19 13:57:28;;;;;;;2.40;0.88;;;;;;;;;;5062488;28;20044;-84
2023/01/19 14:00:05;;;;;;;1.77;0.57;;;;;;;;;;5062554;28;20373;-85
2023/01/19 14:02:31;;;;;;;0.20;0.20;;;;;;;;;;5057727;28;20056;-84
2023/01/19 14:04:56;;;;;;;3.10;0.30;;;;;;;;;;5061744;28;20122;-86
2023/01/19 14:07:25;;;;;;;1.38;0.38;;;;;;;;;;5064380;28;20174;-86
2023/01/19 14:10:04;;;;;;;1.15;0.70;;;;;;;;;;5058148;28;20376;-84
2023/01/19 14:12:33;;;;;;;0.40;0.40;;;;;;;;;;5058147;28;20021;-85
2023/01/19 14:14:59;;;;;;;0.85;0.40;;;;;;;;;;5065741;28;20048;-85
2023/01/19 14:17:29;;;;;;;0.90;0.35;;;;;;;;;;5065099;28;20030;-85
2023/01/19 14:19:59;;;;;;;;;;;;;;;;;;5061909;28;20025;-84
2023/01/19 14:22:44;;;;;;;;;;;;;;;;;;5062881;28;19935;-87
2023/01/19 14:25:26;;;;;;;0.82;0.55;;;;;;;;;;5058977;28;19919;-85
2023/01/19 14:28:30;;;;;;;0.28;0.25;;;;;;;;;;5059798;28;20056;-85
2023/01/19 14:31:16;;;;;;;2.58;0.20;;;;;;;;;;5068092;28;20108;-87
2023/01/19 14:33:45;;;;;;;2.50;0.57;;;;;;;;;;5064177;28;20451;-84
2023/01/19 14:36:25;;;;;;;10.55;1.67;;;;;;;;;;5062052;28;20029;-86
2023/01/19 14:38:51;;;;;;;2.03;0.40;;;;;;;;;;5064345;28;20033;-85
2023/01/19 14:41:32;;;;;;;0.50;0.38;;;;;;;;;;5066480;28;20496;-85
2023/01/19 14:43:58;;;;;;;1.52;0.93;;;;;;;;;;5058890;28;20017;-84
2023/01/19 14:46:24;;;;;;;9.77;1.10;;;;;;;;;;5066396;28;20112;-84
2023/01/19 14:48:54;;;;;;;0.98;0.32;;;;;;;;;;5062735;28;20429;-85
2023/01/19 14:51:22;;;;;;;0.77;0.30;;;;;;;;;;5051827;28;20029;-84
2023/01/19 14:53:52;;;;;;;2.63;0.93;;;;;;;;;;5056506;28;20450;-84
2023/01/19 14:56:28;;;;;;;;;;;;;;;;;;5061248;28;20028;-84
2023/01/19 14:58:55;;;;;;;1.77;0.95;;;;;;;;;;5063973;28;19920;-85
2023/01/19 15:01:20;;;;;;;1.13;0.32;;;;;;;;;;5055492;28;20025;-85
2023/01/19 15:03:46;;;;;;;1.08;0.90;;;;;;;;;;5051125;28;20507;-83
2023/01/19 15:06:17;;;;;;;1.10;0.52;;;;;;;;;;5064168;28;20059;-84
2023/01/19 15:08:44;;;;;;;0.65;0.43;;;;;;;;;;5058619;28;20548;-85
2023/01/19 15:11:20;;;;;;;0.95;0.60;;;;;;;;;;5059374;28;20035;-84
2023/01/19 15:13:46;;;;;;;2.72;0.45;;;;;;;;;;5059575;28;20040;-82
2023/01/19 15:16:12;;;;;;;1.10;0.38;;;;;;;;;;5053418;28;20025;-84
2023/01/19 15:18:37;;;;;;;6.05;1.05;;;;;;;;;;5055026;28;20036;-84
2023/01/19 15:21:03;;;;;;;1.85;0.75;;;;;;;;;;5058735;28;20024;-84
2023/01/19 15:23:29;;;;;;;1.45;0.50;;;;;;;;;;5065897;28;20032;-84
2023/01/19 15:25:59;;;;;;;0.47;0.45;;;;;;;;;;5055540;28;20363;-84
2023/01/19 15:28:25;;;;;;;;;;;;;;;;;;5062641;28;20079;-83
2023/01/19 15:30:52;;;;;;;0.93;0.55;;;;;;;;;;5055754;28;19912;-83
2023/01/19 15:33:25;;;;;;;3.38;0.38;;;;;;;;;;5066842;28;20028;-84
2023/01/19 15:35:51;;;;;;;0.95;0.45;;;;;;;;;;5058050;28;20033;-84
2023/01/19 15:38:16;;;;;;;0.63;0.43;;;;;;;;;;5058977;28;20543;-84
2023/01/19 15:40:42;;;;;;;2.53;0.60;;;;;;;;;;5057803;28;20025;-86
2023/01/19 15:43:10;;;;;;;1.98;0.60;;;;;;;;;;5055067;28;20025;-85
2023/01/19 15:45:41;;;;;;;0.50;0.40;;;;;;;;;;5059476;28;20476;-84
2023/01/19 15:48:09;;;;;;;2.53;0.60;;;;;;;;;;5063354;28;20436;-84
2023/01/19 15:50:41;;;;;;;1.65;0.80;;;;;;;;;;5063073;28;20031;-83
2023/01/19 15:53:10;;;;;;;0.13;0.13;;;;;;;;;;5062579;28;20492;-83
2023/01/19 15:55:36;;;;;;;0.47;0.40;;;;;;;;;;5067944;28;20020;-83
2023/01/19 15:58:01;;;;;;;0.95;0.30;;;;;;;;;;5067213;28;20058;-83
2023/01/19 16:00:32;;;;;;;0.77;0.35;;;;;;;;;;5065063;28;20100;-83
2023/01/19 16:02:58;;;;;;;2.72;0.52;;;;;;;;;;5057513;28;21748;-82
2023/01/19 16:05:23;;;;;;;0.88;0.38;;;;;;;;;;5064175;28;20146;-84
2023/01/19 16:07:49;;;;;;;0.25;0.25;;;;;;;;;;5058927;28;20111;-83
2023/01/19 16:10:15;;;;;;;0.63;0.63;;;;;;;;;;5064491;28;20536;-80
2023/01/19 16:12:44;;;;;;;0.40;0.40;;;;;;;;;;5057555;28;20423;-83
2023/01/19 16:15:10;;;;;;;1.27;0.38;;;;;;;;;;5060106;28;20029;-83
2023/01/19 16:17:35;;;;;;;0.90;0.52;;;;;;;;;;5058440;28;20032;-83
2023/01/19 16:20:03;;;;;;;1.02;0.47;;;;;;;;;;5064083;28;20025;-82
2023/01/19 16:22:28;;;;;;;1.77;0.45;;;;;;;;;;5066464;28;20034;-82
2023/01/19 16:24:55;;;;;;;5.35;0.82;;;;;;;;;;5063304;28;20028;-82
2023/01/19 16:27:21;;;;;;;0.22;0.20;;;;;;;;;;5060346;28;20032;-82
2023/01/19 16:29:47;;;;;;;2.25;0.45;;;;;;;;;;5058628;28;20040;-82
2023/01/19 16:32:12;;;;;;;0.25;0.25;;;;;;;;;;5057823;28;20028;-81
2023/01/19 16:34:37;;;;;;;0.15;0.15;;;;;;;;;;5061758;28;20350;-81
2023/01/19 16:37:03;;;;;;;0.28;0.28;;;;;;;;;;5060258;28;20524;-82
2023/01/19 16:39:28;;;;;;;0.20;0.20;;;;;;;;;;5052765;28;20033;-81
2023/01/19 16:41:53;;;;;;;0.00;0.00;;;;;;;;;;5054282;28;20029;-83
2023/01/19 16:44:19;;;;;;;0.60;0.35;;;;;;;;;;5052301;28;20465;-81
2023/01/19 16:46:48;;;;;;;0.50;0.20;;;;;;;;;;5055369;28;20082;-82
2023/01/19 16:49:21;;;;;;;0.75;0.52;;;;;;;;;;5058070;28;20033;-82
2023/01/19 16:51:47;;;;;;;0.20;0.20;;;;;;;;;;5059534;28;20082;-82
2023/01/19 16:54:14;;;;;;;0.35;0.30;;;;;;;;;;5056920;28;20025;-80
2023/01/19 16:56:40;;;;;;;0.45;0.45;;;;;;;;;;5053219;28;20855;-84
2023/01/19 16:59:06;;;;;;;0.40;0.40;;;;;;;;;;5055500;28;20111;-82
2023/01/19 17:01:32;;;;;;;0.43;0.43;;;;;;;;;;5063955;28;20103;-83
2023/01/19 17:03:57;;;;;;;0.80;0.70;;;;;;;;;;5055464;28;20511;-82
2023/01/19 17:06:23;;;;;;;6.20;0.40;;;;;;;;;;5057443;28;20092;-81
2023/01/19 17:08:50;;;;;;;0.25;0.25;;;;;;;;;;5054850;28;20032;-82
2023/01/19 17:11:21;;;;;;;0.30;0.30;;;;;;;;;;5056837;28;20107;-82
2023/01/19 17:13:59;;;;;;;0.63;0.47;;;;;;;;;;5058780;28;20047;-82
2023/01/19 17:16:25;;;;;;;2.10;0.47;;;;;;;;;;5063250;28;20525;-82
2023/01/19 17:18:51;;;;;;;0.10;0.10;;;;;;;;;;5057303;28;20112;-82
2023/01/19 17:21:18;;;;;;;0.10;0.10;;;;;;;;;;5057320;28;20170;-82
2023/01/19 17:23:45;;;;;;;0.30;0.30;;;;;;;;;;5059714;28;20052;-81
2023/01/19 17:26:11;;;;;;;0.10;0.10;;;;;;;;;;5057143;28;20020;-86
2023/01/19 17:28:37;;;;;;;0.38;0.28;;;;;;;;;;5059849;28;20040;-82
2023/01/19 17:31:07;;;;;;;0.28;0.28;;;;;;;;;;5058789;28;20029;-83
2023/01/19 17:33:33;;;;;;;0.22;0.22;;;;;;;;;;5062794;28;20021;-83
2023/01/19 17:36:03;;;;;;;0.10;0.10;;;;;;;;;;5058333;28;20081;-81
2023/01/19 17:38:29;;;;;;;0.00;0.00;;;;;;;;;;5053208;28;20094;-81
2023/01/19 17:40:54;;;;;;;0.10;0.10;;;;;;;;;;5061316;28;20028;-81
2023/01/19 17:43:20;;;;;;;0.30;0.30;;;;;;;;;;5057196;28;20051;-82
2023/01/19 17:45:45;;;;;;;0.47;0.30;;;;;;;;;;5058126;28;20037;-81
2023/01/19 17:48:12;;;;;;;0.10;0.10;;;;;;;;;;5059226;28;20041;-82
2023/01/19 17:50:38;;;;;;;0.10;0.10;;;;;;;;;;5057199;28;20099;-81
2023/01/19 17:53:03;;;;;;;0.10;0.10;;;;;;;;;;5052803;28;20025;-82
2023/01/19 17:55:32;;;;;;;0.10;0.10;;;;;;;;;;5059512;28;20457;-81
2023/01/19 17:57:57;;;;;;;0.47;0.47;;;;;;;;;;5059947;28;20097;-81
2023/01/19 18:00:23;;;;;;;0.40;0.40;;;;;;;;;;5059015;28;20468;-81
2023/01/19 18:02:49;;;;;;;0.10;0.10;;;;;;;;;;5057272;28;20032;-82
2023/01/19 18:05:15;;;;;;;0.10;0.10;;;;;;;;;;5063661;28;20488;-82
2023/01/19 18:07:41;;;;;;;0.20;0.20;;;;;;;;;;5062840;28;20021;-82
2023/01/19 18:10:07;;;;;;;0.20;0.20;;;;;;;;;;5057860;28;20032;-84
2023/01/19 18:12:33;;;;;;;0.40;0.20;;;;;;;;;;5054849;28;20151;-82
2023/01/19 18:14:58;;;;;;;0.70;0.50;;;;;;;;;;5054323;28;20108;-82
2023/01/19 18:17:24;;;;;;;0.88;0.60;;;;;;;;;;5058231;28;20468;-82
2023/01/19 18:19:49;;;;;;;0.40;0.40;;;;;;;;;;5051225;28;20037;-81
2023/01/19 18:22:15;;;;;;;1.48;0.55;;;;;;;;;;5058841;28;20031;-84
2023/01/19 18:24:42;;;;;;;0.90;0.73;;;;;;;;;;5055921;28;20036;-83
2023/01/19 18:27:08;;;;;;;0.32;0.32;;;;;;;;;;5058755;28;20092;-81
2023/01/19 18:29:33;;;;;;;0.20;0.20;;;;;;;;;;5061420;28;20031;-86
2023/01/19 18:31:58;;;;;;;0.20;0.20;;;;;;;;;;5059528;28;20112;-86
2023/01/19 18:34:24;;;;;;;0.20;0.20;;;;;;;;;;5053535;28;20362;-86
2023/01/19 18:36:49;;;;;;;0.30;0.30;;;;;;;;;;5055472;28;20086;-86
2023/01/19 18:39:15;;;;;;;0.10;0.10;;;;;;;;;;5057918;28;20384;-85
2023/01/19 18:41:43;;;;;;;0.20;0.20;;;;;;;;;;5057419;28;20017;-84
2023/01/19 18:44:09;;;;;;;0.10;0.10;;;;;;;;;;5056640;28;20024;-84
2023/01/19 18:46:35;;;;;;;15.27;1.33;;;;;;;;;;5047830;28;20037;-86
2023/01/19 18:49:01;;;;;;;0.10;0.10;;;;;;;;;;5054654;28;20036;-84
2023/01/19 18:51:26;;;;;;;0.10;0.10;;;;;;;;;;5051731;28;20031;-85
2023/01/19 18:53:52;;;;;;;0.15;0.15;;;;;;;;;;5059295;28;20089;-84
2023/01/19 18:56:17;;;;;;;0.43;0.43;;;;;;;;;;5066660;28;20354;-89
2023/01/19 18:58:43;;;;;;;0.20;0.20;;;;;;;;;;5053360;28;20060;-85
2023/01/19 19:01:28;;;;;;;0.10;0.10;;;;;;;;;;5061248;28;20024;-86
2023/01/19 19:03:55;;;;;;;0.17;0.17;;;;;;;;;;5066817;28;20025;-85
2023/01/19 19:06:21;;;;;;;0.30;0.28;;;;;;;;;;5068924;28;20469;-85
2023/01/19 19:08:51;;;;;;;1.35;0.80;;;;;;;;;;5061237;28;20033;-83
2023/01/19 19:11:18;;;;;;;0.60;0.60;;;;;;;;;;5057620;28;20040;-84
2023/01/19 19:13:44;;;;;;;0.55;0.47;;;;;;;;;;5060613;28;20021;-84
2023/01/19 19:16:11;;;;;;;0.30;0.30;;;;;;;;;;5058595;28;20082;-85
2023/01/19 19:18:37;;;;;;;0.10;0.10;;;;;;;;;;5067138;28;20085;-85
2023/01/19 19:21:08;;;;;;;0.30;0.30;;;;;;;;;;5066098;28;20050;-84
2023/01/19 19:23:39;;;;;;;0.38;0.38;;;;;;;;;;5063830;28;20025;-85
2023/01/19 19:26:08;;;;;;;0.30;0.30;;;;;;;;;;5066121;28;20012;-86
2023/01/19 19:28:35;;;;;;;0.20;0.20;;;;;;;;;;5063140;28;20027;-82
2023/01/19 19:31:07;;;;;;;0.10;0.10;;;;;;;;;;5066069;28;20503;-86
2023/01/19 19:33:33;;;;;;;0.10;0.10;;;;;;;;;;5063919;28;20029;-87
2023/01/19 19:35:58;;;;;;;0.10;0.10;;;;;;;;;;5063934;28;20024;-86
2023/01/19 19:38:24;;;;;;;0.13;0.13;;;;;;;;;;5060256;28;20048;-87
2023/01/19 19:40:53;;;;;;;0.10;0.10;;;;;;;;;;5060019;28;20020;-85
2023/01/19 19:43:19;;;;;;;0.10;0.10;;;;;;;;;;5067814;28;20400;-85
2023/01/19 19:46:00;;;;;;;0.17;0.17;;;;;;;;;;5063777;28;20039;-85
2023/01/19 19:48:26;;;;;;;0.20;0.20;;;;;;;;;;5061086;28;20032;-84
2023/01/19 19:50:52;;;;;;;0.20;0.20;;;;;;;;;;5065888;28;20027;-84
2023/01/19 19:53:18;;;;;;;0.50;0.45;;;;;;;;;;5061168;28;20056;-86
2023/01/19 19:55:43;;;;;;;0.25;0.25;;;;;;;;;;5065908;28;20016;-84
2023/01/19 19:58:08;;;;;;;0.20;0.20;;;;;;;;;;5064021;28;20036;-83
2023/01/19 20:00:34;;;;;;;0.38;0.38;;;;;;;;;;5063880;28;20491;-84
2023/01/19 20:02:59;;;;;;;0.95;0.82;;;;;;;;;;5058960;28;20028;-86
2023/01/19 20:05:25;;;;;;;1.23;0.95;;;;;;;;;;5062767;28;20036;-85
2023/01/19 20:07:50;;;;;;;0.77;0.40;;;;;;;;;;5057553;28;20035;-83
2023/01/19 20:10:16;;;;;;;0.63;0.63;;;;;;;;;;5060885;28;20025;-83
2023/01/19 20:12:41;;;;;;;0.77;0.55;;;;;;;;;;5063317;28;20025;-87
2023/01/19 20:15:07;;;;;;;0.20;0.20;;;;;;;;;;5066060;28;20032;-85
2023/01/19 20:17:33;;;;;;;0.10;0.10;;;;;;;;;;5062848;28;20052;-83
2023/01/19 20:20:02;;;;;;;0.22;0.15;;;;;;;;;;5064636;28;20028;-82
2023/01/19 20:22:31;;;;;;;7.25;0.40;;;;;;;;;;5061312;28;20064;-83
2023/01/19 20:24:57;;;;;;;1.38;0.35;;;;;;;;;;5067794;28;20093;-84
2023/01/19 20:27:22;;;;;;;0.10;0.10;;;;;;;;;;5063001;28;20457;-86
2023/01/19 20:29:56;;;;;;;1.67;0.70;;;;;;;;;;5061207;28;20025;-85
2023/01/19 20:32:22;;;;;;;0.30;0.30;;;;;;;;;;5060134;28;20024;-83
2023/01/19 20:34:48;;;;;;;0.45;0.45;;;;;;;;;;5067882;28;20107;-86
2023/01/19 20:37:13;;;;;;;0.30;0.30;;;;;;;;;;5062088;28;20076;-86
2023/01/19 20:39:38;;;;;;;0.20;0.20;;;;;;;;;;5066775;28;20495;-86
2023/01/19 20:42:08;;;;;;;0.55;0.32;;;;;;;;;;5063870;28;20034;-84
2023/01/19 20:44:33;;;;;;;0.20;0.20;;;;;;;;;;5065312;28;20028;-83